Sherwin, Kansas
Current Conditions -  °F | °C
As of 6:55 AM on Wednesday 26 Nov 2014 (Local Time) from KPTS Reporting Station
Drizzle Drizzle  
Wind Chill: 36°   Ceiling: 6500
Heat Index: 41°   Visibility: 10mi
Dew Point: 30°   Wind: 8mph
Humidity: 64%   Direction: 330°NNW
Pressure: 29.99"   Gusts: NA
Location:  37.1637°N, 94.898°W
Report Text: KPTS 261255Z AUTO 33007KT 10SM -DZ SCT028 SCT034 OVC065 05/M01 A2999 RMK AO2 T00501013
Loading
Personal Weather Stations






























Interactive Weather Map New forecast layout! Learn more

10-Day Weather Forecast

Advertisements
Track Severe Weather on mobile